createdAt,value
2018-06-19T00:01:33.922Z,8.30
2018-06-19T00:04:01.228Z,10.37
2018-06-19T00:06:28.543Z,8.53
2018-06-19T00:08:55.933Z,7.03
2018-06-19T00:11:23.445Z,9.43
2018-06-19T00:13:50.796Z,8.07
2018-06-19T00:16:18.175Z,7.73
2018-06-19T00:18:47.902Z,8.33
2018-06-19T00:21:22.524Z,8.10
2018-06-19T00:23:49.979Z,9.70
2018-06-19T00:26:17.418Z,8.87
2018-06-19T00:28:46.134Z,6.50
2018-06-19T00:31:13.533Z,7.00
2018-06-19T00:33:40.918Z,9.27
2018-06-19T00:36:08.180Z,9.23
2018-06-19T00:38:35.611Z,7.83
2018-06-19T00:41:02.957Z,9.27
2018-06-19T00:43:30.414Z,9.17
2018-06-19T00:45:58.312Z,12.87
2018-06-19T00:48:25.856Z,8.33
2018-06-19T00:50:53.209Z,8.23
2018-06-19T00:53:20.623Z,10.33
2018-06-19T00:55:48.043Z,8.73
2018-06-19T00:58:15.375Z,7.13
2018-06-19T01:00:42.807Z,7.77
2018-06-19T01:03:10.302Z,8.10
2018-06-19T01:05:37.746Z,8.57
2018-06-19T01:08:05.118Z,8.33
2018-06-19T01:10:32.484Z,6.30
2018-06-19T01:12:59.821Z,7.70
2018-06-19T01:15:27.117Z,8.60
2018-06-19T01:17:54.529Z,9.47
2018-06-19T01:20:21.851Z,7.37
2018-06-19T01:22:49.279Z,7.93
2018-06-19T01:25:16.702Z,7.13
2018-06-19T01:27:44.014Z,10.00
2018-06-19T01:30:11.312Z,9.87
2018-06-19T01:32:38.731Z,6.97
2018-06-19T01:35:06.317Z,7.37
2018-06-19T01:37:33.897Z,8.70
2018-06-19T01:40:01.238Z,9.07
2018-06-19T01:42:28.581Z,9.30
2018-06-19T01:44:55.950Z,7.63
2018-06-19T01:47:23.262Z,6.67
2018-06-19T01:49:50.658Z,6.33
2018-06-19T01:52:18.103Z,6.67
2018-06-19T01:54:45.475Z,7.20
2018-06-19T01:57:12.863Z,6.53
2018-06-19T01:59:40.149Z,7.73
2018-06-19T02:02:07.727Z,7.00
2018-06-19T02:04:35.447Z,8.23
2018-06-19T02:07:03.054Z,8.63
2018-06-19T02:09:30.368Z,7.87
2018-06-19T02:11:57.697Z,9.00
2018-06-19T02:14:25.122Z,7.03
2018-06-19T02:16:52.583Z,8.77
2018-06-19T02:19:19.902Z,7.53
2018-06-19T02:21:47.439Z,6.87
2018-06-19T02:24:14.918Z,8.87
2018-06-19T02:26:42.226Z,6.33
2018-06-19T02:29:09.573Z,6.20
2018-06-19T02:31:36.895Z,8.03
2018-06-19T02:34:04.237Z,6.73
2018-06-19T02:36:31.517Z,7.50
2018-06-19T02:38:58.814Z,6.23
2018-06-19T02:41:26.126Z,5.30
2018-06-19T02:43:53.509Z,5.13
2018-06-19T02:46:20.947Z,9.30
2018-06-19T02:48:48.260Z,6.83
2018-06-19T02:51:15.542Z,6.37
2018-06-19T02:53:42.865Z,6.97
2018-06-19T02:56:10.177Z,7.07
2018-06-19T02:58:37.454Z,6.40
2018-06-19T03:01:04.823Z,12.10
2018-06-19T03:03:32.088Z,9.10
2018-06-19T03:05:59.354Z,6.20
2018-06-19T03:08:26.847Z,7.77
2018-06-19T03:10:54.154Z,8.20
2018-06-19T03:13:21.431Z,7.10
2018-06-19T03:15:48.748Z,10.73
2018-06-19T03:18:16.024Z,6.67
2018-06-19T03:20:43.298Z,6.60
2018-06-19T03:23:10.601Z,6.33
2018-06-19T03:25:38.023Z,7.30
2018-06-19T03:28:05.322Z,8.63
2018-06-19T03:30:32.628Z,12.30
2018-06-19T03:32:59.879Z,12.90
2018-06-19T03:35:27.118Z,8.57
2018-06-19T03:37:54.393Z,12.47
2018-06-19T03:40:21.672Z,8.53
2018-06-19T03:42:49.081Z,9.50
2018-06-19T03:45:16.375Z,8.87
2018-06-19T03:47:43.894Z,6.67
2018-06-19T03:50:11.183Z,11.13
2018-06-19T03:52:38.462Z,6.37
2018-06-19T03:55:05.975Z,6.67
2018-06-19T03:57:33.310Z,6.10
2018-06-19T04:00:00.648Z,12.17
2018-06-19T04:02:27.933Z,7.53
2018-06-19T04:04:55.289Z,6.73
2018-06-19T04:07:22.687Z,9.00
2018-06-19T04:09:50.016Z,5.90
2018-06-19T04:12:17.449Z,6.97
2018-06-19T04:14:45.090Z,6.47
2018-06-19T04:17:27.800Z,10.20
2018-06-19T04:19:57.202Z,7.17
2018-06-19T04:22:25.595Z,5.30
2018-06-19T04:24:52.915Z,5.70
2018-06-19T04:27:20.361Z,8.77
2018-06-19T04:29:47.669Z,5.90
2018-06-19T04:32:15.077Z,6.93
2018-06-19T04:34:42.420Z,6.63
2018-06-19T04:37:09.795Z,9.00
2018-06-19T04:39:37.405Z,7.47
2018-06-19T04:42:05.464Z,7.00
2018-06-19T04:44:33.039Z,10.23
2018-06-19T04:47:01.212Z,5.83
2018-06-19T04:49:28.583Z,7.30
2018-06-19T04:51:55.944Z,5.73
2018-06-19T04:54:23.294Z,8.07
2018-06-19T04:56:50.620Z,6.60
2018-06-19T04:59:17.958Z,5.17
2018-06-19T05:01:45.214Z,7.47
2018-06-19T05:04:12.480Z,6.93
2018-06-19T05:06:39.808Z,8.67
2018-06-19T05:09:09.017Z,7.93
2018-06-19T05:11:36.477Z,5.50
2018-06-19T05:14:03.821Z,5.63
2018-06-19T05:16:31.424Z,7.37
2018-06-19T05:18:59.070Z,9.93
2018-06-19T05:21:26.411Z,9.23
2018-06-19T05:23:53.729Z,7.90
2018-06-19T05:26:21.065Z,5.60
2018-06-19T05:28:48.417Z,5.70
2018-06-19T05:31:15.685Z,6.47
2018-06-19T05:33:42.988Z,5.97
2018-06-19T05:36:10.261Z,9.40
2018-06-19T05:38:38.321Z,8.97
2018-06-19T05:41:06.274Z,8.30
2018-06-19T05:43:33.634Z,6.37
2018-06-19T05:46:01.041Z,13.30
2018-06-19T05:48:28.389Z,8.33
2018-06-19T05:50:55.774Z,9.03
2018-06-19T05:53:23.210Z,6.90
2018-06-19T05:55:50.610Z,8.53
2018-06-19T05:58:18.033Z,7.00
2018-06-19T06:00:45.436Z,9.13
2018-06-19T06:03:12.818Z,8.03
2018-06-19T06:05:40.193Z,7.00
2018-06-19T06:08:07.585Z,7.60
2018-06-19T06:10:35.095Z,6.60
2018-06-19T06:13:02.414Z,5.50
2018-06-19T06:15:29.857Z,5.67
2018-06-19T06:17:57.222Z,5.83
2018-06-19T06:20:24.532Z,5.90
2018-06-19T06:22:51.894Z,6.40
2018-06-19T06:25:19.271Z,6.63
2018-06-19T06:27:46.709Z,3.90
2018-06-19T06:30:14.035Z,4.13
2018-06-19T06:32:41.504Z,4.93
2018-06-19T06:35:09.134Z,3.70
2018-06-19T06:37:36.515Z,6.73
2018-06-19T06:40:03.979Z,6.43
2018-06-19T06:42:31.388Z,6.00
2018-06-19T06:44:58.798Z,5.50
2018-06-19T06:47:26.363Z,4.57
2018-06-19T06:49:53.873Z,5.07
2018-06-19T06:52:21.287Z,4.13
2018-06-19T06:54:48.697Z,6.13
2018-06-19T06:57:16.338Z,4.50
2018-06-19T06:59:43.856Z,3.27
2018-06-19T07:02:11.192Z,3.10
2018-06-19T07:04:38.589Z,5.17
2018-06-19T07:07:05.907Z,10.03
2018-06-19T07:09:33.235Z,2.87
2018-06-19T07:12:00.729Z,6.60
2018-06-19T07:14:28.165Z,4.67
2018-06-19T07:16:55.599Z,2.53
2018-06-19T07:19:22.988Z,4.20
2018-06-19T07:21:50.337Z,3.47
2018-06-19T07:24:17.689Z,4.33
2018-06-19T07:26:44.981Z,4.33
2018-06-19T07:29:12.455Z,3.87
2018-06-19T07:31:39.880Z,3.87
2018-06-19T07:34:07.225Z,3.03
2018-06-19T07:36:34.660Z,7.07
2018-06-19T07:39:02.378Z,4.43
2018-06-19T07:41:29.663Z,5.83
2018-06-19T07:43:57.177Z,2.50
2018-06-19T07:46:24.593Z,3.90
2018-06-19T07:48:51.807Z,5.70
2018-06-19T07:51:19.100Z,3.33
2018-06-19T07:53:46.492Z,4.07
2018-06-19T07:56:13.975Z,3.83
2018-06-19T07:58:41.473Z,2.43
2018-06-19T08:01:09.408Z,2.00
2018-06-19T08:03:37.015Z,16.37
2018-06-19T08:06:04.400Z,3.93
2018-06-19T08:08:31.803Z,6.77
2018-06-19T08:10:59.484Z,3.17
2018-06-19T08:13:26.926Z,3.00
2018-06-19T08:15:54.396Z,3.70
2018-06-19T08:18:31.608Z,2.63
2018-06-19T08:20:59.115Z,2.90
2018-06-19T08:23:27.328Z,3.17
2018-06-19T08:25:54.623Z,2.73
2018-06-19T08:28:22.110Z,2.20
2018-06-19T08:30:49.551Z,2.60
2018-06-19T08:33:17.072Z,4.47
2018-06-19T08:35:44.583Z,5.63
2018-06-19T08:38:11.928Z,6.23
2018-06-19T08:40:39.336Z,1.90
2018-06-19T08:43:06.771Z,2.70
2018-06-19T08:45:34.218Z,4.30
2018-06-19T08:48:02.672Z,1.93
2018-06-19T08:50:30.196Z,5.17
2018-06-19T08:52:57.817Z,2.03
2018-06-19T08:55:25.088Z,1.77
2018-06-19T08:57:52.549Z,4.40
2018-06-19T09:00:19.966Z,4.33
2018-06-19T09:02:47.541Z,3.93
2018-06-19T09:05:14.892Z,2.77
2018-06-19T09:07:42.710Z,1.60
2018-06-19T09:10:10.514Z,2.20
2018-06-19T09:12:42.767Z,1.70
2018-06-19T09:15:10.115Z,3.13
2018-06-19T09:17:37.426Z,2.37
2018-06-19T09:20:04.811Z,3.33
2018-06-19T09:22:32.234Z,6.53
2018-06-19T09:24:59.682Z,1.80
2018-06-19T09:27:27.012Z,3.33
2018-06-19T09:29:54.375Z,3.37
2018-06-19T09:32:21.793Z,5.93
2018-06-19T09:34:49.224Z,1.73
2018-06-19T09:37:19.071Z,4.63
2018-06-19T09:39:46.756Z,1.97
2018-06-19T09:42:14.216Z,2.53
2018-06-19T09:44:41.638Z,5.43
2018-06-19T09:47:09.027Z,3.73
2018-06-19T09:49:38.337Z,3.30
2018-06-19T09:52:06.319Z,2.83
2018-06-19T09:54:33.877Z,2.93
2018-06-19T09:57:01.379Z,2.40
2018-06-19T09:59:29.107Z,2.20
2018-06-19T10:01:56.662Z,4.43
2018-06-19T10:04:24.788Z,1.77
2018-06-19T10:06:52.742Z,1.97
2018-06-19T10:09:20.089Z,2.43
2018-06-19T10:11:47.542Z,2.30
2018-06-19T10:14:17.597Z,2.97
2018-06-19T10:16:46.314Z,2.83
2018-06-19T10:19:13.698Z,3.63
2018-06-19T10:21:41.233Z,3.70
2018-06-19T10:24:12.523Z,2.57
2018-06-19T10:27:10.669Z,3.70
2018-06-19T10:29:38.071Z,3.50
2018-06-19T10:32:05.405Z,1.67
2018-06-19T10:34:33.020Z,3.43
2018-06-19T10:37:00.385Z,3.17
2018-06-19T10:39:27.776Z,3.20
2018-06-19T10:41:55.236Z,5.23
2018-06-19T10:44:22.794Z,1.90
2018-06-19T10:46:50.207Z,1.77
2018-06-19T10:49:17.761Z,4.90
2018-06-19T10:51:45.239Z,2.73
2018-06-19T10:54:12.701Z,2.70
2018-06-19T10:56:40.133Z,2.43
2018-06-19T10:59:07.542Z,3.30
2018-06-19T11:01:34.887Z,3.60
2018-06-19T11:04:02.316Z,1.53
2018-06-19T11:06:29.615Z,2.40
2018-06-19T11:08:57.009Z,1.90
2018-06-19T11:11:25.185Z,5.17
2018-06-19T11:13:52.638Z,2.53
2018-06-19T11:16:19.950Z,3.40
2018-06-19T11:18:47.605Z,3.37
2018-06-19T11:21:15.035Z,4.13
2018-06-19T11:23:42.440Z,3.27
2018-06-19T11:26:09.895Z,3.73
2018-06-19T11:28:37.327Z,5.67
2018-06-19T11:31:05.246Z,4.77
2018-06-19T11:33:32.715Z,3.47
2018-06-19T11:36:00.757Z,3.30
2018-06-19T11:38:28.747Z,5.47
2018-06-19T11:40:56.172Z,3.23
2018-06-19T11:43:23.655Z,2.27
2018-06-19T11:45:51.039Z,2.90
2018-06-19T11:48:18.457Z,3.57
2018-06-19T11:50:45.812Z,3.20
2018-06-19T11:53:13.205Z,3.40
2018-06-19T11:55:40.651Z,3.43
2018-06-19T11:58:08.194Z,3.60
2018-06-19T12:00:35.576Z,3.83
2018-06-19T12:03:03.110Z,3.47
2018-06-19T12:05:30.520Z,4.63
2018-06-19T12:07:57.867Z,1.60
2018-06-19T12:10:25.186Z,1.70
2018-06-19T12:12:52.559Z,2.33
2018-06-19T12:15:19.885Z,2.77
2018-06-19T12:17:47.445Z,3.20
2018-06-19T12:20:14.882Z,4.60
2018-06-19T12:22:42.232Z,3.83
2018-06-19T12:25:09.799Z,1.87
2018-06-19T12:27:37.396Z,3.07
2018-06-19T12:30:05.159Z,2.63
2018-06-19T12:32:32.797Z,4.90
2018-06-19T12:35:00.347Z,4.10
2018-06-19T12:37:27.894Z,3.93
2018-06-19T12:39:55.656Z,3.30
2018-06-19T12:42:23.000Z,2.40
2018-06-19T12:44:50.473Z,3.77
2018-06-19T12:47:18.052Z,4.13
2018-06-19T12:49:56.815Z,2.93
2018-06-19T12:52:35.658Z,3.37
2018-06-19T12:55:14.486Z,6.10
2018-06-19T12:57:41.904Z,4.47
2018-06-19T13:00:09.443Z,3.87
2018-06-19T13:02:40.157Z,3.77
2018-06-19T13:05:18.918Z,3.63
2018-06-19T13:07:46.432Z,2.87
2018-06-19T13:10:13.964Z,1.50
2018-06-19T13:12:52.820Z,4.47
2018-06-19T13:15:20.253Z,2.50
2018-06-19T13:17:58.991Z,5.43
2018-06-19T13:20:37.852Z,1.85
2018-06-19T13:23:05.327Z,2.50
2018-06-19T13:25:35.013Z,2.35
2018-06-19T13:28:02.598Z,4.25
2018-06-19T13:30:41.583Z,4.65
2018-06-19T13:33:09.099Z,3.98
2018-06-19T13:35:36.601Z,2.62
2018-06-19T13:38:04.432Z,3.08
2018-06-19T13:41:09.692Z,2.30
2018-06-19T13:43:48.627Z,2.37
2018-06-19T13:46:16.225Z,2.87
2018-06-19T13:48:43.791Z,3.90
2018-06-19T13:51:11.995Z,4.58
2018-06-19T13:53:40.027Z,3.35
2018-06-19T13:56:18.830Z,1.50
2018-06-19T13:58:46.669Z,3.95
2018-06-19T14:01:14.358Z,1.75
2018-06-19T14:03:42.569Z,3.40
2018-06-19T14:06:10.305Z,3.42
2018-06-19T14:08:46.844Z,2.02
2018-06-19T14:11:25.830Z,2.08
2018-06-19T14:13:55.142Z,2.05
2018-06-19T14:16:28.929Z,4.85
2018-06-19T14:18:56.582Z,3.02
2018-06-19T14:21:23.987Z,3.55
2018-06-19T14:23:51.610Z,2.05
2018-06-19T14:26:19.000Z,3.47
2018-06-19T14:28:48.153Z,3.52
2018-06-19T14:31:15.506Z,3.70
2018-06-19T14:33:44.494Z,3.42
2018-06-19T14:36:14.731Z,4.58
2018-06-19T14:38:42.345Z,3.00
2018-06-19T14:41:22.438Z,3.15
2018-06-19T14:43:50.059Z,1.85
2018-06-19T14:46:17.610Z,2.27
2018-06-19T14:48:45.889Z,4.40
2018-06-19T14:51:13.318Z,4.67
2018-06-19T14:53:40.705Z,4.67
2018-06-19T14:56:08.167Z,5.25
2018-06-19T14:58:35.518Z,5.00
2018-06-19T15:01:02.827Z,3.92
2018-06-19T15:03:30.558Z,4.12
2018-06-19T15:05:57.952Z,5.55
2018-06-19T15:08:25.234Z,2.47
2018-06-19T15:10:52.676Z,3.35
2018-06-19T15:13:20.030Z,2.90
2018-06-19T15:15:47.468Z,3.92
2018-06-19T15:18:14.972Z,2.22
2018-06-19T15:20:42.386Z,1.67
2018-06-19T15:23:09.764Z,3.90
2018-06-19T15:25:38.014Z,1.92
2018-06-19T15:28:05.518Z,3.75
2018-06-19T15:30:33.094Z,3.62
2018-06-19T15:33:01.369Z,2.52
2018-06-19T15:35:29.235Z,2.75
2018-06-19T15:37:56.789Z,1.67
2018-06-19T15:40:26.071Z,3.45
2018-06-19T15:42:53.442Z,2.85
2018-06-19T15:45:20.938Z,3.65
2018-06-19T15:47:48.334Z,3.47
2018-06-19T15:50:16.420Z,4.35
2018-06-19T15:52:43.829Z,3.87
2018-06-19T15:55:11.282Z,2.92
2018-06-19T15:57:38.647Z,2.33
2018-06-19T16:00:06.248Z,5.58
2018-06-19T16:02:33.741Z,2.87
2018-06-19T16:05:01.177Z,5.27
2018-06-19T16:07:28.538Z,2.37
2018-06-19T16:09:56.554Z,3.35
2018-06-19T16:12:24.000Z,4.55
2018-06-19T16:14:51.474Z,3.33
2018-06-19T16:17:19.298Z,2.52
2018-06-19T16:19:46.732Z,2.90
2018-06-19T16:22:14.209Z,5.23
2018-06-19T16:24:41.685Z,3.12
2018-06-19T16:27:09.231Z,5.07
2018-06-19T16:29:36.704Z,5.22
2018-06-19T16:32:04.238Z,4.17
2018-06-19T16:34:31.734Z,2.60
2018-06-19T16:36:59.163Z,3.83
2018-06-19T16:39:27.093Z,14.00
2018-06-19T16:41:54.612Z,3.70
2018-06-19T16:44:22.196Z,3.00
2018-06-19T16:46:49.738Z,2.50
2018-06-19T16:49:17.330Z,2.58
2018-06-19T16:51:45.082Z,3.40
2018-06-19T16:54:31.671Z,3.60
2018-06-19T16:56:59.043Z,1.92
2018-06-19T16:59:26.838Z,4.23
2018-06-19T17:01:55.326Z,2.95
2018-06-19T17:04:23.564Z,2.13
2018-06-19T17:06:51.072Z,4.60
2018-06-19T17:09:24.606Z,2.10
2018-06-19T17:11:56.226Z,2.95
2018-06-19T17:14:23.620Z,12.10
2018-06-19T17:16:51.021Z,3.17
2018-06-19T17:19:18.307Z,2.35
2018-06-19T17:21:45.631Z,4.20
2018-06-19T17:24:12.971Z,1.97
2018-06-19T17:26:40.357Z,3.57
2018-06-19T17:29:07.697Z,2.62
2018-06-19T17:31:35.162Z,1.60
2018-06-19T17:34:02.834Z,1.57
2018-06-19T17:36:30.849Z,3.13
2018-06-19T17:38:58.241Z,8.03
2018-06-19T17:41:25.557Z,2.73
2018-06-19T17:43:52.915Z,3.85
2018-06-19T17:46:20.265Z,2.67
2018-06-19T17:48:47.706Z,3.90
2018-06-19T17:51:15.039Z,11.97
2018-06-19T17:53:42.376Z,9.43
2018-06-19T17:56:10.009Z,3.90
2018-06-19T17:58:37.421Z,3.72
2018-06-19T18:01:05.042Z,3.75
2018-06-19T18:03:32.700Z,2.47
2018-06-19T18:06:00.013Z,2.27
2018-06-19T18:08:27.541Z,3.80
2018-06-19T18:10:54.928Z,3.72
2018-06-19T18:13:22.348Z,3.10
2018-06-19T18:15:49.711Z,4.42
2018-06-19T18:18:17.114Z,2.02
2018-06-19T18:20:44.550Z,1.98
2018-06-19T18:23:12.098Z,6.17
2018-06-19T18:25:39.823Z,6.60
2018-06-19T18:28:07.983Z,4.65
2018-06-19T18:30:36.825Z,2.22
2018-06-19T18:33:05.017Z,3.95
2018-06-19T18:35:32.536Z,2.10
2018-06-19T18:38:00.276Z,1.90
2018-06-19T18:40:27.742Z,1.75
2018-06-19T18:42:55.542Z,2.00
2018-06-19T18:45:23.099Z,1.83
2018-06-19T18:47:50.757Z,4.53
2018-06-19T18:52:55.472Z,15.83
2018-06-19T18:55:23.780Z,5.67
2018-06-19T18:57:51.802Z,8.27
2018-06-19T19:00:23.608Z,4.13
2018-06-19T19:02:51.354Z,19.80
2018-06-19T19:05:19.446Z,20.87
2018-06-19T19:07:47.069Z,10.87
2018-06-19T19:10:20.285Z,5.67
2018-06-19T19:12:54.037Z,4.47
2018-06-19T19:15:28.138Z,5.97
2018-06-19T19:18:01.551Z,3.57
2018-06-19T19:20:29.596Z,3.10
2018-06-19T19:22:57.605Z,2.23
2018-06-19T19:25:25.388Z,4.00
2018-06-19T19:27:58.553Z,3.03
2018-06-19T19:30:26.830Z,3.30
2018-06-19T19:32:54.465Z,3.50
2018-06-19T19:35:22.938Z,3.20
2018-06-19T19:38:05.994Z,4.20
2018-06-19T19:40:33.624Z,2.73
2018-06-19T19:43:01.450Z,2.33
2018-06-19T19:45:29.144Z,3.60
2018-06-19T19:48:02.448Z,2.93
2018-06-19T19:50:30.340Z,3.37
2018-06-19T19:52:58.237Z,3.17
2018-06-19T19:55:28.514Z,2.87
2018-06-19T19:58:01.958Z,3.20
2018-06-19T20:00:30.372Z,4.30
2018-06-19T20:02:58.221Z,3.50
2018-06-19T20:05:26.914Z,12.33
2018-06-19T20:07:54.575Z,8.67
2018-06-19T20:10:22.290Z,13.50
2018-06-19T20:12:50.433Z,6.93
2018-06-19T20:15:18.602Z,9.17
2018-06-19T20:17:50.552Z,5.90
2018-06-19T20:20:18.431Z,4.20
2018-06-19T20:22:46.603Z,3.20
2018-06-19T20:25:15.083Z,2.90
2018-06-19T20:27:43.799Z,3.30
2018-06-19T20:30:13.153Z,3.93
2018-06-19T20:32:41.230Z,3.43
2018-06-19T20:35:09.419Z,2.37
2018-06-19T20:37:37.740Z,6.23
2018-06-19T20:40:13.430Z,5.70
2018-06-19T20:42:41.687Z,14.13
2018-06-19T20:45:10.001Z,15.93
2018-06-19T20:47:38.401Z,8.47
2018-06-19T20:50:07.634Z,3.73
2018-06-19T20:52:35.971Z,2.93
2018-06-19T20:55:05.334Z,4.53
2018-06-19T20:57:34.506Z,4.90
2018-06-19T21:00:02.540Z,3.97
2018-06-19T21:02:30.604Z,6.53
2018-06-19T21:04:58.856Z,4.77
2018-06-19T21:07:27.845Z,6.30
2018-06-19T21:09:56.118Z,4.03
2018-06-19T21:12:24.315Z,4.37
2018-06-19T21:14:54.386Z,4.87
2018-06-19T21:17:23.108Z,7.07
2018-06-19T21:19:50.518Z,5.47
2018-06-19T21:22:19.928Z,6.37
2018-06-19T21:24:47.600Z,4.90
2018-06-19T21:27:14.968Z,8.93
2018-06-19T21:29:42.284Z,5.00
2018-06-19T21:32:09.869Z,5.17
2018-06-19T21:34:37.524Z,5.43
2018-06-19T21:37:05.823Z,4.60
2018-06-19T21:39:33.488Z,6.17
2018-06-19T21:42:11.208Z,4.03
2018-06-19T21:44:40.033Z,4.37
2018-06-19T21:47:09.294Z,4.03
2018-06-19T21:49:36.950Z,3.77
2018-06-19T21:52:05.172Z,6.00
2018-06-19T21:54:34.097Z,4.40
2018-06-19T21:57:08.148Z,5.67
2018-06-19T21:59:42.810Z,5.17
2018-06-19T22:02:10.446Z,3.97
2018-06-19T22:04:38.475Z,3.93
2018-06-19T22:07:07.033Z,3.30
2018-06-19T22:09:34.380Z,5.07
2018-06-19T22:12:03.779Z,3.90
2018-06-19T22:14:35.579Z,11.00
2018-06-19T22:17:11.096Z,9.77
2018-06-19T22:19:43.420Z,7.17
2018-06-19T22:22:13.794Z,8.43
2018-06-19T22:24:42.152Z,4.23
2018-06-19T22:27:09.734Z,3.90
2018-06-19T22:29:46.123Z,5.13
2018-06-19T22:32:15.435Z,4.43
2018-06-19T22:34:48.324Z,3.90
2018-06-19T22:37:15.829Z,3.73
2018-06-19T22:39:43.122Z,3.73
2018-06-19T22:42:10.434Z,3.53
2018-06-19T22:44:37.787Z,5.70
2018-06-19T22:47:05.197Z,4.77
2018-06-19T22:49:32.569Z,3.63
2018-06-19T22:51:59.901Z,3.30
2018-06-19T22:54:27.599Z,3.87
2018-06-19T22:56:57.209Z,4.00
2018-06-19T22:59:25.293Z,3.47
2018-06-19T23:01:52.698Z,3.80
2018-06-19T23:04:28.563Z,3.43
2018-06-19T23:06:55.924Z,3.87
2018-06-19T23:09:23.339Z,3.00
2018-06-19T23:12:51.602Z,3.20
2018-06-19T23:15:21.199Z,3.67
2018-06-19T23:17:48.708Z,4.13
2018-06-19T23:20:16.103Z,4.40
2018-06-19T23:22:45.333Z,4.10
2018-06-19T23:25:12.655Z,5.10
2018-06-19T23:27:40.073Z,6.70
2018-06-19T23:30:07.523Z,5.93
2018-06-19T23:32:35.522Z,4.80
2018-06-19T23:35:02.891Z,4.93
2018-06-19T23:37:30.269Z,5.07
2018-06-19T23:39:57.621Z,4.30
2018-06-19T23:42:24.961Z,4.53
2018-06-19T23:44:52.387Z,4.27
2018-06-19T23:47:19.856Z,4.70
2018-06-19T23:49:47.264Z,4.23
2018-06-19T23:52:14.576Z,3.83
2018-06-19T23:54:44.571Z,5.23
2018-06-19T23:57:12.065Z,4.97
2018-06-19T23:59:39.371Z,5.37
